sensor_id;sensor_type;location;lat;lon;timestamp;P1;durP1;ratioP1;P2;durP2;ratioP2
60722;SDS011;46574;52.818;6.516;2022-09-09T00:00:26;7.38;;;5.68;;
60722;SDS011;46574;52.818;6.516;2022-09-09T00:03:02;9.25;;;6.70;;
60722;SDS011;46574;52.818;6.516;2022-09-09T00:08:18;7.75;;;5.63;;
60722;SDS011;46574;52.818;6.516;2022-09-09T00:10:46;10.00;;;7.22;;
60722;SDS011;46574;52.818;6.516;2022-09-09T00:13:22;8.65;;;7.53;;
60722;SDS011;46574;52.818;6.516;2022-09-09T00:16:12;8.93;;;7.68;;
60722;SDS011;46574;52.818;6.516;2022-09-09T00:21:35;8.68;;;6.20;;
60722;SDS011;46574;52.818;6.516;2022-09-09T00:24:10;7.93;;;6.40;;
60722;SDS011;46574;52.818;6.516;2022-09-09T00:29:13;6.22;;;5.13;;
60722;SDS011;46574;52.818;6.516;2022-09-09T00:31:40;8.75;;;7.57;;
60722;SDS011;46574;52.818;6.516;2022-09-09T00:34:11;7.45;;;6.03;;
60722;SDS011;46574;52.818;6.516;2022-09-09T00:36:37;8.73;;;6.75;;
60722;SDS011;46574;52.818;6.516;2022-09-09T00:39:04;9.88;;;7.65;;
60722;SDS011;46574;52.818;6.516;2022-09-09T00:41:50;7.63;;;6.78;;
60722;SDS011;46574;52.818;6.516;2022-09-09T00:45:02;7.25;;;6.55;;
60722;SDS011;46574;52.818;6.516;2022-09-09T00:47:43;7.75;;;7.05;;
60722;SDS011;46574;52.818;6.516;2022-09-09T00:55:45;9.50;;;6.55;;
60722;SDS011;46574;52.818;6.516;2022-09-09T00:58:14;7.82;;;6.35;;
60722;SDS011;46574;52.818;6.516;2022-09-09T01:00:46;8.23;;;7.25;;
60722;SDS011;46574;52.818;6.516;2022-09-09T01:03:19;8.52;;;6.75;;
60722;SDS011;46574;52.818;6.516;2022-09-09T01:09:02;9.90;;;7.10;;
60722;SDS011;46574;52.818;6.516;2022-09-09T01:14:30;8.27;;;6.82;;
60722;SDS011;46574;52.818;6.516;2022-09-09T01:17:12;8.60;;;7.22;;
60722;SDS011;46574;52.818;6.516;2022-09-09T01:22:50;6.78;;;5.95;;
60722;SDS011;46574;52.818;6.516;2022-09-09T01:28:29;7.47;;;5.93;;
60722;SDS011;46574;52.818;6.516;2022-09-09T01:30:56;5.95;;;5.25;;
60722;SDS011;46574;52.818;6.516;2022-09-09T01:33:23;7.60;;;6.18;;
60722;SDS011;46574;52.818;6.516;2022-09-09T01:35:50;8.02;;;7.05;;
60722;SDS011;46574;52.818;6.516;2022-09-09T01:38:20;8.77;;;6.63;;
60722;SDS011;46574;52.818;6.516;2022-09-09T01:40:47;7.90;;;6.45;;
60722;SDS011;46574;52.818;6.516;2022-09-09T01:43:14;8.60;;;6.90;;
60722;SDS011;46574;52.818;6.516;2022-09-09T01:45:40;7.68;;;5.40;;
60722;SDS011;46574;52.818;6.516;2022-09-09T01:48:08;7.35;;;5.35;;
60722;SDS011;46574;52.818;6.516;2022-09-09T01:50:33;6.40;;;4.50;;
60722;SDS011;46574;52.818;6.516;2022-09-09T01:52:59;8.93;;;6.10;;
60722;SDS011;46574;52.818;6.516;2022-09-09T01:55:36;8.57;;;6.05;;
60722;SDS011;46574;52.818;6.516;2022-09-09T02:01:05;7.20;;;5.32;;
60722;SDS011;46574;52.818;6.516;2022-09-09T02:03:37;7.40;;;5.63;;
60722;SDS011;46574;52.818;6.516;2022-09-09T02:08:53;6.75;;;5.10;;
60722;SDS011;46574;52.818;6.516;2022-09-09T02:13:48;6.35;;;5.70;;
60722;SDS011;46574;52.818;6.516;2022-09-09T02:16:24;6.32;;;5.20;;
60722;SDS011;46574;52.818;6.516;2022-09-09T02:19:04;5.97;;;5.13;;
60722;SDS011;46574;52.818;6.516;2022-09-09T02:21:41;7.85;;;5.35;;
60722;SDS011;46574;52.818;6.516;2022-09-09T02:24:09;8.15;;;6.03;;
60722;SDS011;46574;52.818;6.516;2022-09-09T02:26:39;6.57;;;5.20;;
60722;SDS011;46574;52.818;6.516;2022-09-09T02:29:08;5.20;;;3.85;;
60722;SDS011;46574;52.818;6.516;2022-09-09T02:31:38;4.72;;;3.97;;
60722;SDS011;46574;52.818;6.516;2022-09-09T02:34:06;6.03;;;4.23;;
60722;SDS011;46574;52.818;6.516;2022-09-09T02:36:36;5.18;;;4.15;;
60722;SDS011;46574;52.818;6.516;2022-09-09T02:39:04;6.07;;;4.38;;
60722;SDS011;46574;52.818;6.516;2022-09-09T02:41:33;7.75;;;5.53;;
60722;SDS011;46574;52.818;6.516;2022-09-09T02:44:00;5.95;;;5.22;;
60722;SDS011;46574;52.818;6.516;2022-09-09T02:46:37;8.77;;;6.28;;
60722;SDS011;46574;52.818;6.516;2022-09-09T02:49:29;6.15;;;5.50;;
60722;SDS011;46574;52.818;6.516;2022-09-09T02:52:22;6.03;;;5.50;;
60722;SDS011;46574;52.818;6.516;2022-09-09T02:55:17;8.15;;;5.65;;
60722;SDS011;46574;52.818;6.516;2022-09-09T02:57:46;6.70;;;5.15;;
60722;SDS011;46574;52.818;6.516;2022-09-09T03:00:13;7.13;;;5.40;;
60722;SDS011;46574;52.818;6.516;2022-09-09T03:02:39;5.93;;;5.28;;
60722;SDS011;46574;52.818;6.516;2022-09-09T03:05:07;4.85;;;4.10;;
60722;SDS011;46574;52.818;6.516;2022-09-09T03:07:33;5.43;;;4.85;;
60722;SDS011;46574;52.818;6.516;2022-09-09T03:09:58;10.82;;;6.38;;
60722;SDS011;46574;52.818;6.516;2022-09-09T03:12:24;5.47;;;4.97;;
60722;SDS011;46574;52.818;6.516;2022-09-09T03:14:50;6.78;;;6.05;;
60722;SDS011;46574;52.818;6.516;2022-09-09T03:17:15;6.35;;;5.45;;
60722;SDS011;46574;52.818;6.516;2022-09-09T03:19:41;6.28;;;4.80;;
60722;SDS011;46574;52.818;6.516;2022-09-09T03:22:09;6.45;;;5.65;;
60722;SDS011;46574;52.818;6.516;2022-09-09T03:24:35;6.70;;;6.10;;
60722;SDS011;46574;52.818;6.516;2022-09-09T03:27:00;8.25;;;5.88;;
60722;SDS011;46574;52.818;6.516;2022-09-09T03:29:26;7.05;;;6.28;;
60722;SDS011;46574;52.818;6.516;2022-09-09T03:31:52;6.85;;;6.22;;
60722;SDS011;46574;52.818;6.516;2022-09-09T03:34:17;7.32;;;6.53;;
60722;SDS011;46574;52.818;6.516;2022-09-09T03:36:43;7.95;;;6.55;;
60722;SDS011;46574;52.818;6.516;2022-09-09T03:39:08;7.32;;;6.32;;
60722;SDS011;46574;52.818;6.516;2022-09-09T03:41:34;6.55;;;5.95;;
60722;SDS011;46574;52.818;6.516;2022-09-09T03:44:00;6.53;;;5.80;;
60722;SDS011;46574;52.818;6.516;2022-09-09T03:46:25;7.57;;;6.00;;
60722;SDS011;46574;52.818;6.516;2022-09-09T03:48:51;6.82;;;6.22;;
60722;SDS011;46574;52.818;6.516;2022-09-09T03:51:18;6.80;;;6.13;;
60722;SDS011;46574;52.818;6.516;2022-09-09T03:53:44;7.72;;;6.90;;
60722;SDS011;46574;52.818;6.516;2022-09-09T03:56:09;8.05;;;6.35;;
60722;SDS011;46574;52.818;6.516;2022-09-09T03:58:35;8.23;;;5.82;;
60722;SDS011;46574;52.818;6.516;2022-09-09T04:01:04;6.38;;;5.78;;
60722;SDS011;46574;52.818;6.516;2022-09-09T04:03:33;7.05;;;6.35;;
60722;SDS011;46574;52.818;6.516;2022-09-09T04:05:59;8.95;;;6.53;;
60722;SDS011;46574;52.818;6.516;2022-09-09T04:08:28;6.68;;;6.03;;
60722;SDS011;46574;52.818;6.516;2022-09-09T04:10:56;6.60;;;5.90;;
60722;SDS011;46574;52.818;6.516;2022-09-09T04:13:23;9.60;;;7.32;;
60722;SDS011;46574;52.818;6.516;2022-09-09T04:15:53;7.72;;;6.90;;
60722;SDS011;46574;52.818;6.516;2022-09-09T04:18:21;8.40;;;7.60;;
60722;SDS011;46574;52.818;6.516;2022-09-09T04:20:48;8.80;;;7.88;;
60722;SDS011;46574;52.818;6.516;2022-09-09T04:23:15;8.83;;;7.90;;
60722;SDS011;46574;52.818;6.516;2022-09-09T04:25:47;8.53;;;7.57;;
60722;SDS011;46574;52.818;6.516;2022-09-09T04:28:14;9.02;;;7.50;;
60722;SDS011;46574;52.818;6.516;2022-09-09T04:30:41;8.95;;;7.55;;
60722;SDS011;46574;52.818;6.516;2022-09-09T04:33:08;9.57;;;8.13;;
60722;SDS011;46574;52.818;6.516;2022-09-09T04:35:35;10.38;;;8.82;;
60722;SDS011;46574;52.818;6.516;2022-09-09T04:38:00;8.95;;;8.00;;
60722;SDS011;46574;52.818;6.516;2022-09-09T04:40:29;9.80;;;7.90;;
60722;SDS011;46574;52.818;6.516;2022-09-09T04:42:57;9.13;;;8.18;;
60722;SDS011;46574;52.818;6.516;2022-09-09T04:45:23;8.38;;;7.25;;
60722;SDS011;46574;52.818;6.516;2022-09-09T04:47:49;8.73;;;7.82;;
60722;SDS011;46574;52.818;6.516;2022-09-09T04:50:14;8.63;;;7.82;;
60722;SDS011;46574;52.818;6.516;2022-09-09T04:52:41;9.60;;;8.20;;
60722;SDS011;46574;52.818;6.516;2022-09-09T04:55:07;9.88;;;8.55;;
60722;SDS011;46574;52.818;6.516;2022-09-09T04:57:34;7.93;;;7.00;;
60722;SDS011;46574;52.818;6.516;2022-09-09T04:59:59;9.45;;;8.55;;
60722;SDS011;46574;52.818;6.516;2022-09-09T05:02:26;9.57;;;8.57;;
60722;SDS011;46574;52.818;6.516;2022-09-09T05:04:52;10.13;;;9.02;;
60722;SDS011;46574;52.818;6.516;2022-09-09T05:07:17;9.27;;;8.38;;
60722;SDS011;46574;52.818;6.516;2022-09-09T05:09:44;9.40;;;8.50;;
60722;SDS011;46574;52.818;6.516;2022-09-09T05:12:10;9.77;;;8.77;;
60722;SDS011;46574;52.818;6.516;2022-09-09T05:14:36;10.98;;;9.38;;
60722;SDS011;46574;52.818;6.516;2022-09-09T05:17:02;7.65;;;6.95;;
60722;SDS011;46574;52.818;6.516;2022-09-09T05:19:28;8.65;;;7.80;;
60722;SDS011;46574;52.818;6.516;2022-09-09T05:21:56;6.95;;;6.25;;
60722;SDS011;46574;52.818;6.516;2022-09-09T05:24:22;11.43;;;7.60;;
60722;SDS011;46574;52.818;6.516;2022-09-09T05:26:48;8.45;;;7.05;;
60722;SDS011;46574;52.818;6.516;2022-09-09T05:29:14;8.50;;;6.70;;
60722;SDS011;46574;52.818;6.516;2022-09-09T05:31:39;9.70;;;8.60;;
60722;SDS011;46574;52.818;6.516;2022-09-09T05:34:05;9.38;;;8.30;;
60722;SDS011;46574;52.818;6.516;2022-09-09T05:36:31;11.93;;;9.05;;
60722;SDS011;46574;52.818;6.516;2022-09-09T05:38:57;9.52;;;7.63;;
60722;SDS011;46574;52.818;6.516;2022-09-09T05:41:23;9.20;;;8.13;;
60722;SDS011;46574;52.818;6.516;2022-09-09T05:43:48;9.60;;;8.32;;
60722;SDS011;46574;52.818;6.516;2022-09-09T05:46:15;9.93;;;8.23;;
60722;SDS011;46574;52.818;6.516;2022-09-09T05:48:44;9.25;;;7.93;;
60722;SDS011;46574;52.818;6.516;2022-09-09T05:51:16;9.00;;;6.93;;
60722;SDS011;46574;52.818;6.516;2022-09-09T05:53:47;9.48;;;8.38;;
60722;SDS011;46574;52.818;6.516;2022-09-09T05:56:17;7.80;;;7.05;;
60722;SDS011;46574;52.818;6.516;2022-09-09T05:58:44;8.38;;;7.50;;
60722;SDS011;46574;52.818;6.516;2022-09-09T06:01:15;9.30;;;7.20;;
60722;SDS011;46574;52.818;6.516;2022-09-09T06:03:43;8.38;;;7.00;;
60722;SDS011;46574;52.818;6.516;2022-09-09T06:06:11;7.60;;;6.50;;
60722;SDS011;46574;52.818;6.516;2022-09-09T06:08:39;7.85;;;7.05;;
60722;SDS011;46574;52.818;6.516;2022-09-09T06:11:08;7.97;;;7.18;;
60722;SDS011;46574;52.818;6.516;2022-09-09T06:13:36;8.05;;;7.18;;
60722;SDS011;46574;52.818;6.516;2022-09-09T06:16:04;8.55;;;7.55;;
60722;SDS011;46574;52.818;6.516;2022-09-09T06:18:37;8.00;;;7.20;;
60722;SDS011;46574;52.818;6.516;2022-09-09T06:21:04;7.80;;;6.47;;
60722;SDS011;46574;52.818;6.516;2022-09-09T06:23:32;9.35;;;7.78;;
60722;SDS011;46574;52.818;6.516;2022-09-09T06:26:02;8.32;;;7.10;;
60722;SDS011;46574;52.818;6.516;2022-09-09T06:28:28;10.50;;;8.13;;
60722;SDS011;46574;52.818;6.516;2022-09-09T06:31:04;7.53;;;6.80;;
60722;SDS011;46574;52.818;6.516;2022-09-09T06:33:34;8.32;;;7.43;;
60722;SDS011;46574;52.818;6.516;2022-09-09T06:36:02;8.07;;;7.27;;
60722;SDS011;46574;52.818;6.516;2022-09-09T06:38:28;10.23;;;8.02;;
60722;SDS011;46574;52.818;6.516;2022-09-09T06:40:55;8.52;;;7.63;;
60722;SDS011;46574;52.818;6.516;2022-09-09T06:43:23;7.20;;;6.50;;
60722;SDS011;46574;52.818;6.516;2022-09-09T06:45:56;10.02;;;7.95;;
60722;SDS011;46574;52.818;6.516;2022-09-09T06:48:23;7.32;;;6.63;;
60722;SDS011;46574;52.818;6.516;2022-09-09T06:50:51;8.10;;;7.30;;
60722;SDS011;46574;52.818;6.516;2022-09-09T06:53:25;8.73;;;7.53;;
60722;SDS011;46574;52.818;6.516;2022-09-09T06:55:52;8.43;;;7.55;;
60722;SDS011;46574;52.818;6.516;2022-09-09T06:58:18;8.55;;;7.65;;
60722;SDS011;46574;52.818;6.516;2022-09-09T07:00:43;9.13;;;7.72;;
60722;SDS011;46574;52.818;6.516;2022-09-09T07:03:09;7.07;;;6.47;;
60722;SDS011;46574;52.818;6.516;2022-09-09T07:05:35;7.45;;;6.68;;
60722;SDS011;46574;52.818;6.516;2022-09-09T07:08:02;8.45;;;7.63;;
60722;SDS011;46574;52.818;6.516;2022-09-09T07:10:28;7.65;;;6.95;;
60722;SDS011;46574;52.818;6.516;2022-09-09T07:12:53;6.22;;;5.18;;
60722;SDS011;46574;52.818;6.516;2022-09-09T07:15:19;7.53;;;6.75;;
60722;SDS011;46574;52.818;6.516;2022-09-09T07:17:46;7.82;;;7.03;;
60722;SDS011;46574;52.818;6.516;2022-09-09T07:20:12;7.78;;;7.07;;
60722;SDS011;46574;52.818;6.516;2022-09-09T07:22:39;7.65;;;6.35;;
60722;SDS011;46574;52.818;6.516;2022-09-09T07:25:06;9.50;;;7.22;;
60722;SDS011;46574;52.818;6.516;2022-09-09T07:27:32;8.20;;;7.43;;
60722;SDS011;46574;52.818;6.516;2022-09-09T07:29:57;8.00;;;6.50;;
60722;SDS011;46574;52.818;6.516;2022-09-09T07:32:23;7.97;;;6.65;;
60722;SDS011;46574;52.818;6.516;2022-09-09T07:34:50;8.15;;;7.32;;
60722;SDS011;46574;52.818;6.516;2022-09-09T07:37:16;7.13;;;6.40;;
60722;SDS011;46574;52.818;6.516;2022-09-09T07:39:42;10.23;;;7.65;;
60722;SDS011;46574;52.818;6.516;2022-09-09T07:42:09;7.45;;;6.57;;
60722;SDS011;46574;52.818;6.516;2022-09-09T07:44:36;8.18;;;6.78;;
60722;SDS011;46574;52.818;6.516;2022-09-09T07:47:04;7.72;;;6.65;;
60722;SDS011;46574;52.818;6.516;2022-09-09T07:49:30;8.60;;;6.85;;
60722;SDS011;46574;52.818;6.516;2022-09-09T07:51:57;8.50;;;6.80;;
60722;SDS011;46574;52.818;6.516;2022-09-09T07:54:22;10.18;;;6.70;;
60722;SDS011;46574;52.818;6.516;2022-09-09T07:56:49;8.00;;;7.30;;
60722;SDS011;46574;52.818;6.516;2022-09-09T07:59:15;8.75;;;7.50;;
60722;SDS011;46574;52.818;6.516;2022-09-09T08:01:43;7.90;;;6.68;;
60722;SDS011;46574;52.818;6.516;2022-09-09T08:06:42;8.13;;;7.32;;
60722;SDS011;46574;52.818;6.516;2022-09-09T08:09:11;9.02;;;6.35;;
60722;SDS011;46574;52.818;6.516;2022-09-09T08:11:37;7.13;;;6.43;;
60722;SDS011;46574;52.818;6.516;2022-09-09T08:14:03;8.77;;;7.53;;
60722;SDS011;46574;52.818;6.516;2022-09-09T08:16:31;7.82;;;5.95;;
60722;SDS011;46574;52.818;6.516;2022-09-09T08:18:58;9.00;;;7.47;;
60722;SDS011;46574;52.818;6.516;2022-09-09T08:21:26;9.38;;;7.30;;
60722;SDS011;46574;52.818;6.516;2022-09-09T08:23:53;7.05;;;6.35;;
60722;SDS011;46574;52.818;6.516;2022-09-09T08:26:22;9.38;;;6.50;;
60722;SDS011;46574;52.818;6.516;2022-09-09T08:28:50;9.48;;;6.90;;
60722;SDS011;46574;52.818;6.516;2022-09-09T08:31:21;8.52;;;6.53;;
60722;SDS011;46574;52.818;6.516;2022-09-09T08:33:54;8.68;;;6.32;;
60722;SDS011;46574;52.818;6.516;2022-09-09T08:36:22;7.15;;;5.88;;
60722;SDS011;46574;52.818;6.516;2022-09-09T08:38:51;6.45;;;5.85;;
60722;SDS011;46574;52.818;6.516;2022-09-09T08:41:41;7.80;;;6.68;;
60722;SDS011;46574;52.818;6.516;2022-09-09T08:47:35;11.13;;;6.32;;
60722;SDS011;46574;52.818;6.516;2022-09-09T08:50:30;8.23;;;5.15;;
60722;SDS011;46574;52.818;6.516;2022-09-09T08:53:16;6.55;;;5.20;;
60722;SDS011;46574;52.818;6.516;2022-09-09T08:55:52;6.90;;;6.03;;
60722;SDS011;46574;52.818;6.516;2022-09-09T08:58:28;7.35;;;4.80;;
60722;SDS011;46574;52.818;6.516;2022-09-09T09:07:09;8.10;;;5.03;;
60722;SDS011;46574;52.818;6.516;2022-09-09T09:10:37;7.13;;;4.70;;
60722;SDS011;46574;52.818;6.516;2022-09-09T09:12:50;6.03;;;3.70;;
60722;SDS011;46574;52.818;6.516;2022-09-09T09:17:48;7.90;;;4.90;;
60722;SDS011;46574;52.818;6.516;2022-09-09T09:20:14;7.93;;;4.22;;
60722;SDS011;46574;52.818;6.516;2022-09-09T09:22:47;9.38;;;4.13;;
60722;SDS011;46574;52.818;6.516;2022-09-09T09:25:20;7.13;;;3.72;;
60722;SDS011;46574;52.818;6.516;2022-09-09T09:30:24;7.57;;;3.92;;
60722;SDS011;46574;52.818;6.516;2022-09-09T09:32:56;7.43;;;3.60;;
60722;SDS011;46574;52.818;6.516;2022-09-09T09:35:23;6.90;;;3.50;;
60722;SDS011;46574;52.818;6.516;2022-09-09T09:37:48;7.85;;;3.63;;
60722;SDS011;46574;52.818;6.516;2022-09-09T09:40:16;8.65;;;3.55;;
60722;SDS011;46574;52.818;6.516;2022-09-09T09:47:58;5.43;;;2.65;;
60722;SDS011;46574;52.818;6.516;2022-09-09T09:50:25;5.97;;;3.47;;
60722;SDS011;46574;52.818;6.516;2022-09-09T09:52:55;6.93;;;2.95;;
60722;SDS011;46574;52.818;6.516;2022-09-09T09:55:22;5.35;;;3.17;;
60722;SDS011;46574;52.818;6.516;2022-09-09T09:57:49;5.10;;;2.85;;
60722;SDS011;46574;52.818;6.516;2022-09-09T10:00:15;9.43;;;3.67;;
60722;SDS011;46574;52.818;6.516;2022-09-09T10:02:44;6.32;;;3.30;;
60722;SDS011;46574;52.818;6.516;2022-09-09T10:05:15;6.10;;;3.25;;
60722;SDS011;46574;52.818;6.516;2022-09-09T10:07:43;5.72;;;3.20;;
60722;SDS011;46574;52.818;6.516;2022-09-09T10:10:15;5.13;;;2.35;;
60722;SDS011;46574;52.818;6.516;2022-09-09T10:20:37;5.60;;;2.53;;
60722;SDS011;46574;52.818;6.516;2022-09-09T10:36:49;5.68;;;2.33;;
60722;SDS011;46574;52.818;6.516;2022-09-09T10:42:14;11.02;;;3.88;;
60722;SDS011;46574;52.818;6.516;2022-09-09T10:52:42;6.97;;;2.75;;
60722;SDS011;46574;52.818;6.516;2022-09-09T10:55:24;4.80;;;2.60;;
60722;SDS011;46574;52.818;6.516;2022-09-09T10:57:56;4.38;;;2.35;;
60722;SDS011;46574;52.818;6.516;2022-09-09T11:00:27;5.50;;;2.40;;
60722;SDS011;46574;52.818;6.516;2022-09-09T11:03:03;4.50;;;2.35;;
60722;SDS011;46574;52.818;6.516;2022-09-09T11:05:45;6.25;;;2.15;;
60722;SDS011;46574;52.818;6.516;2022-09-09T11:08:19;4.57;;;2.10;;
60722;SDS011;46574;52.818;6.516;2022-09-09T11:10:53;5.95;;;2.28;;
60722;SDS011;46574;52.818;6.516;2022-09-09T11:13:40;5.07;;;2.10;;
60722;SDS011;46574;52.818;6.516;2022-09-09T11:19:30;4.95;;;2.70;;
60722;SDS011;46574;52.818;6.516;2022-09-09T11:24:45;4.88;;;2.00;;
60722;SDS011;46574;52.818;6.516;2022-09-09T11:38:21;5.82;;;2.20;;
60722;SDS011;46574;52.818;6.516;2022-09-09T11:43:26;5.60;;;2.28;;
60722;SDS011;46574;52.818;6.516;2022-09-09T11:46:04;3.63;;;1.83;;
60722;SDS011;46574;52.818;6.516;2022-09-09T11:48:33;6.80;;;2.40;;
60722;SDS011;46574;52.818;6.516;2022-09-09T11:51:11;5.57;;;2.90;;
60722;SDS011;46574;52.818;6.516;2022-09-09T11:53:51;4.07;;;2.70;;
60722;SDS011;46574;52.818;6.516;2022-09-09T11:56:27;4.38;;;1.90;;
60722;SDS011;46574;52.818;6.516;2022-09-09T11:59:03;6.50;;;2.58;;
60722;SDS011;46574;52.818;6.516;2022-09-09T12:06:44;6.47;;;2.50;;
60722;SDS011;46574;52.818;6.516;2022-09-09T12:09:22;3.20;;;2.10;;
60722;SDS011;46574;52.818;6.516;2022-09-09T12:19:40;4.57;;;2.38;;
60722;SDS011;46574;52.818;6.516;2022-09-09T12:22:16;5.40;;;2.30;;
60722;SDS011;46574;52.818;6.516;2022-09-09T12:25:17;4.17;;;1.90;;
60722;SDS011;46574;52.818;6.516;2022-09-09T12:27:44;4.72;;;1.92;;
60722;SDS011;46574;52.818;6.516;2022-09-09T12:32:45;5.57;;;2.25;;
60722;SDS011;46574;52.818;6.516;2022-09-09T12:35:12;3.60;;;1.80;;
60722;SDS011;46574;52.818;6.516;2022-09-09T12:37:47;3.88;;;1.50;;
60722;SDS011;46574;52.818;6.516;2022-09-09T12:40:26;5.28;;;1.88;;
60722;SDS011;46574;52.818;6.516;2022-09-09T12:42:53;3.50;;;1.90;;
60722;SDS011;46574;52.818;6.516;2022-09-09T12:45:24;4.68;;;1.95;;
60722;SDS011;46574;52.818;6.516;2022-09-09T12:48:03;4.22;;;2.33;;
60722;SDS011;46574;52.818;6.516;2022-09-09T12:50:35;7.15;;;2.28;;
60722;SDS011;46574;52.818;6.516;2022-09-09T12:53:11;3.78;;;1.67;;
60722;SDS011;46574;52.818;6.516;2022-09-09T12:55:50;5.70;;;1.85;;
60722;SDS011;46574;52.818;6.516;2022-09-09T12:58:18;4.25;;;1.83;;
60722;SDS011;46574;52.818;6.516;2022-09-09T13:00:49;3.70;;;2.05;;
60722;SDS011;46574;52.818;6.516;2022-09-09T13:03:18;5.22;;;1.90;;
60722;SDS011;46574;52.818;6.516;2022-09-09T13:05:48;2.58;;;1.73;;
60722;SDS011;46574;52.818;6.516;2022-09-09T13:08:15;5.47;;;1.60;;
60722;SDS011;46574;52.818;6.516;2022-09-09T13:10:49;3.63;;;1.83;;
60722;SDS011;46574;52.818;6.516;2022-09-09T13:13:23;2.60;;;1.80;;
60722;SDS011;46574;52.818;6.516;2022-09-09T13:15:52;4.20;;;1.80;;
60722;SDS011;46574;52.818;6.516;2022-09-09T13:18:24;4.90;;;1.60;;
60722;SDS011;46574;52.818;6.516;2022-09-09T13:20:55;2.78;;;1.48;;
60722;SDS011;46574;52.818;6.516;2022-09-09T13:23:23;4.85;;;1.92;;
60722;SDS011;46574;52.818;6.516;2022-09-09T13:26:04;2.92;;;1.40;;
60722;SDS011;46574;52.818;6.516;2022-09-09T13:28:51;2.92;;;1.50;;
60722;SDS011;46574;52.818;6.516;2022-09-09T13:31:27;3.13;;;1.35;;
60722;SDS011;46574;52.818;6.516;2022-09-09T13:33:55;3.05;;;1.20;;
60722;SDS011;46574;52.818;6.516;2022-09-09T13:36:31;4.30;;;1.75;;
60722;SDS011;46574;52.818;6.516;2022-09-09T13:39:00;5.22;;;1.70;;
60722;SDS011;46574;52.818;6.516;2022-09-09T13:44:01;3.17;;;1.30;;
60722;SDS011;46574;52.818;6.516;2022-09-09T13:46:38;2.50;;;1.10;;
60722;SDS011;46574;52.818;6.516;2022-09-09T13:51:38;1.20;;;1.10;;
60722;SDS011;46574;52.818;6.516;2022-09-09T13:54:08;4.43;;;2.05;;
60722;SDS011;46574;52.818;6.516;2022-09-09T13:56:35;2.20;;;1.60;;
60722;SDS011;46574;52.818;6.516;2022-09-09T13:59:03;2.75;;;1.63;;
60722;SDS011;46574;52.818;6.516;2022-09-09T14:01:30;3.90;;;1.70;;
60722;SDS011;46574;52.818;6.516;2022-09-09T14:03:56;4.13;;;2.00;;
60722;SDS011;46574;52.818;6.516;2022-09-09T14:06:22;2.53;;;1.48;;
60722;SDS011;46574;52.818;6.516;2022-09-09T14:08:51;3.53;;;1.58;;
60722;SDS011;46574;52.818;6.516;2022-09-09T14:11:17;3.10;;;1.15;;
60722;SDS011;46574;52.818;6.516;2022-09-09T14:13:44;2.58;;;1.15;;
60722;SDS011;46574;52.818;6.516;2022-09-09T14:16:09;1.27;;;1.00;;
60722;SDS011;46574;52.818;6.516;2022-09-09T14:18:35;2.92;;;1.00;;
60722;SDS011;46574;52.818;6.516;2022-09-09T14:21:02;2.47;;;1.25;;
60722;SDS011;46574;52.818;6.516;2022-09-09T14:23:28;2.13;;;1.02;;
60722;SDS011;46574;52.818;6.516;2022-09-09T14:25:54;2.92;;;1.35;;
60722;SDS011;46574;52.818;6.516;2022-09-09T14:28:20;1.73;;;1.00;;
60722;SDS011;46574;52.818;6.516;2022-09-09T14:30:46;2.10;;;1.10;;
60722;SDS011;46574;52.818;6.516;2022-09-09T14:33:13;1.42;;;1.23;;
60722;SDS011;46574;52.818;6.516;2022-09-09T14:35:40;1.70;;;1.20;;
60722;SDS011;46574;52.818;6.516;2022-09-09T14:38:07;3.60;;;1.13;;
60722;SDS011;46574;52.818;6.516;2022-09-09T14:40:34;2.72;;;1.20;;
60722;SDS011;46574;52.818;6.516;2022-09-09T14:43:01;2.97;;;1.30;;
60722;SDS011;46574;52.818;6.516;2022-09-09T14:45:27;2.03;;;1.20;;
60722;SDS011;46574;52.818;6.516;2022-09-09T14:47:53;3.45;;;1.55;;
60722;SDS011;46574;52.818;6.516;2022-09-09T14:50:19;3.92;;;1.60;;
60722;SDS011;46574;52.818;6.516;2022-09-09T14:52:46;3.67;;;1.50;;
60722;SDS011;46574;52.818;6.516;2022-09-09T14:55:12;2.30;;;1.40;;
60722;SDS011;46574;52.818;6.516;2022-09-09T14:57:38;3.33;;;1.30;;
60722;SDS011;46574;52.818;6.516;2022-09-09T15:00:05;2.00;;;1.40;;
60722;SDS011;46574;52.818;6.516;2022-09-09T15:02:32;2.25;;;1.30;;
60722;SDS011;46574;52.818;6.516;2022-09-09T15:04:58;2.03;;;1.60;;
60722;SDS011;46574;52.818;6.516;2022-09-09T15:07:24;2.03;;;1.30;;
60722;SDS011;46574;52.818;6.516;2022-09-09T15:09:50;2.28;;;1.10;;
60722;SDS011;46574;52.818;6.516;2022-09-09T15:12:17;3.20;;;1.40;;
60722;SDS011;46574;52.818;6.516;2022-09-09T15:14:44;3.92;;;1.40;;
60722;SDS011;46574;52.818;6.516;2022-09-09T15:17:10;2.63;;;1.60;;
60722;SDS011;46574;52.818;6.516;2022-09-09T15:19:36;2.72;;;1.30;;
60722;SDS011;46574;52.818;6.516;2022-09-09T15:22:02;2.85;;;1.30;;
60722;SDS011;46574;52.818;6.516;2022-09-09T15:24:30;3.38;;;1.70;;
60722;SDS011;46574;52.818;6.516;2022-09-09T15:26:56;3.42;;;1.40;;
60722;SDS011;46574;52.818;6.516;2022-09-09T15:29:22;1.40;;;1.30;;
60722;SDS011;46574;52.818;6.516;2022-09-09T15:31:48;1.38;;;1.08;;
60722;SDS011;46574;52.818;6.516;2022-09-09T15:34:14;1.50;;;1.05;;
60722;SDS011;46574;52.818;6.516;2022-09-09T15:36:40;1.90;;;1.30;;
60722;SDS011;46574;52.818;6.516;2022-09-09T15:39:11;1.85;;;1.23;;
60722;SDS011;46574;52.818;6.516;2022-09-09T15:41:40;2.03;;;1.30;;
60722;SDS011;46574;52.818;6.516;2022-09-09T15:44:07;3.78;;;1.52;;
60722;SDS011;46574;52.818;6.516;2022-09-09T15:46:36;3.78;;;1.50;;
60722;SDS011;46574;52.818;6.516;2022-09-09T15:49:04;3.15;;;1.60;;
60722;SDS011;46574;52.818;6.516;2022-09-09T15:51:30;2.70;;;1.50;;
60722;SDS011;46574;52.818;6.516;2022-09-09T15:53:56;2.95;;;1.67;;
60722;SDS011;46574;52.818;6.516;2022-09-09T15:56:23;1.73;;;1.33;;
60722;SDS011;46574;52.818;6.516;2022-09-09T15:58:50;1.70;;;1.40;;
60722;SDS011;46574;52.818;6.516;2022-09-09T16:01:17;3.28;;;1.50;;
60722;SDS011;46574;52.818;6.516;2022-09-09T16:03:44;2.08;;;1.80;;
60722;SDS011;46574;52.818;6.516;2022-09-09T16:06:15;1.80;;;1.70;;
60722;SDS011;46574;52.818;6.516;2022-09-09T16:08:43;3.25;;;1.90;;
60722;SDS011;46574;52.818;6.516;2022-09-09T16:11:15;3.58;;;1.70;;
60722;SDS011;46574;52.818;6.516;2022-09-09T16:13:45;2.38;;;1.60;;
60722;SDS011;46574;52.818;6.516;2022-09-09T16:16:12;2.25;;;1.75;;
60722;SDS011;46574;52.818;6.516;2022-09-09T16:18:40;3.03;;;1.73;;
60722;SDS011;46574;52.818;6.516;2022-09-09T16:21:15;3.95;;;1.98;;
60722;SDS011;46574;52.818;6.516;2022-09-09T16:23:46;3.58;;;1.92;;
60722;SDS011;46574;52.818;6.516;2022-09-09T16:26:14;1.92;;;1.60;;
60722;SDS011;46574;52.818;6.516;2022-09-09T16:28:42;1.90;;;1.70;;
60722;SDS011;46574;52.818;6.516;2022-09-09T16:31:09;1.73;;;1.40;;
60722;SDS011;46574;52.818;6.516;2022-09-09T16:33:39;2.28;;;1.60;;
60722;SDS011;46574;52.818;6.516;2022-09-09T16:36:06;2.97;;;1.65;;
60722;SDS011;46574;52.818;6.516;2022-09-09T16:38:33;5.03;;;2.30;;
60722;SDS011;46574;52.818;6.516;2022-09-09T16:41:00;4.75;;;2.30;;
60722;SDS011;46574;52.818;6.516;2022-09-09T16:43:26;3.63;;;2.13;;
60722;SDS011;46574;52.818;6.516;2022-09-09T16:45:52;4.05;;;2.35;;
60722;SDS011;46574;52.818;6.516;2022-09-09T16:48:18;4.82;;;2.90;;
60722;SDS011;46574;52.818;6.516;2022-09-09T16:50:45;4.68;;;2.30;;
60722;SDS011;46574;52.818;6.516;2022-09-09T16:53:11;3.47;;;2.40;;
60722;SDS011;46574;52.818;6.516;2022-09-09T16:55:39;3.47;;;2.70;;
60722;SDS011;46574;52.818;6.516;2022-09-09T16:58:06;2.80;;;2.30;;
60722;SDS011;46574;52.818;6.516;2022-09-09T17:00:40;3.08;;;2.17;;
60722;SDS011;46574;52.818;6.516;2022-09-09T17:03:06;3.08;;;2.53;;
60722;SDS011;46574;52.818;6.516;2022-09-09T17:05:31;3.08;;;2.55;;
60722;SDS011;46574;52.818;6.516;2022-09-09T17:07:57;4.95;;;2.70;;
60722;SDS011;46574;52.818;6.516;2022-09-09T17:10:24;4.13;;;2.22;;